Lela Franco — WDI2504 — position and weather

sailwx.info

Track history (hours):
 
Tides and Currents Weather Stations Pressure Air Temp Water Temp Dewpoint Dewpoint Depression Visibility Wind Speed Wind Dir Waves Ship Positions

Lela Franco

Owner: Harley Marine Services, Inc, Seattle, WA. More information available from US FCC via Universal Licensing System and Coast Guard Vessel Documentation Center.

Last reported at 2018-Jun-18 23:00 UTC. Time now 2018-Jun-18 23:19 UTC.
Position N 33°45' W 118°16'.

Length 18 m; draft 3 m.

Type: Towing. MMSI: 366926730.

Date/timePositionNaut miles runAvg speedWind from/ knotsBaromVisibWave heightAir tempDewpointWater temp
2018-Jun-18 23:00N 33°45' W 118°16'181047.1
2018-Jun-18 22:59N 33°27' W 118°17'1836.3
2018-Jun-18 22:30N 33°45' W 118°16'3 5.1
2018-Jun-18 22:00N 33°43' W 118°15'1 2.9
2018-Jun-18 21:30N 33°44' W 118°16'0 0.0
2018-Jun-18 21:00N 33°44' W 118°16'0 0.1
2018-Jun-18 20:30N 33°44' W 118°16'1 2.7
2018-Jun-18 20:00N 33°43' W 118°15'1 2.0
2018-Jun-18 19:30N 33°43' W 118°16'0 0.9
2018-Jun-18 19:00N 33°44' W 118°16'2320671.7
2018-Jun-18 19:00N 33°21' W 118°18'2347.1
2018-Jun-18 18:30N 33°44' W 118°16'195291.0
2018-Jun-18 18:30N 33°25' W 118°18'1938.5
2018-Jun-18 18:00N 33°44' W 118°16'151230.8
2018-Jun-18 18:00N 33°29' W 118°17'1530.8
2018-Jun-18 17:30N 33°44' W 118°16'113093.6
2018-Jun-18 17:30N 33°33' W 118°16'1122.5
2018-Jun-18 17:00N 33°44' W 118°16'76577.4
2018-Jun-18 17:00N 33°37' W 118°16'714.6
2018-Jun-18 16:30N 33°44' W 118°16'36112.5
2018-Jun-18 16:30N 33°40' W 118°15'3 5.4
2018-Jun-18 16:00N 33°43' W 118°16'1256.4
2018-Jun-18 16:00N 33°44' W 118°16'0 0.0
2018-Jun-18 15:30N 33°44' W 118°16'11379.2
2018-Jun-18 15:30N 33°43' W 118°16'1 3.0
2018-Jun-18 15:00N 33°45' W 118°17'1485.2
2018-Jun-18 15:00N 33°45' W 118°16'1 1.7
2018-Jun-18 14:30N 33°45' W 118°17'1 1.9
2018-Jun-18 14:00N 33°44' W 118°16'0 0.1
2018-Jun-18 13:30N 33°44' W 118°16'0 0.8
2018-Jun-18 13:00N 33°44' W 118°16'2 4.6
2018-Jun-18 12:30N 33°46' W 118°16'1 1.1
2018-Jun-18 12:00N 33°45' W 118°17'2 3.6
2018-Jun-18 11:29N 33°44' W 118°16'1 3.1
2018-Jun-18 11:00N 33°43' W 118°15'1 2.8
2018-Jun-18 10:30N 33°44' W 118°16'0 0.0
2018-Jun-18 10:00N 33°44' W 118°16'0 0.0
2018-Jun-18 09:30N 33°44' W 118°16'0 0.0
2018-Jun-18 09:00N 33°44' W 118°16'0 0.0
2018-Jun-18 08:30N 33°44' W 118°16'0 0.0
2018-Jun-18 08:00N 33°44' W 118°16'1 1.2
2018-Jun-18 07:30N 33°43' W 118°16'2 3.3
2018-Jun-18 07:00N 33°45' W 118°16'1 2.2
2018-Jun-18 06:30N 33°44' W 118°16'0 0.0
2018-Jun-18 06:00N 33°44' W 118°16'0 0.0
2018-Jun-18 05:30N 33°44' W 118°16'0 0.0
2018-Jun-18 05:00N 33°44' W 118°16'0 0.0
2018-Jun-18 04:30N 33°44' W 118°16'0 0.0
2018-Jun-18 04:00N 33°44' W 118°16'0 0.0
2018-Jun-18 03:30N 33°44' W 118°16'0 0.0
2018-Jun-18 03:00N 33°44' W 118°16'0 0.0
2018-Jun-18 02:30N 33°44' W 118°16'0 0.0
2018-Jun-18 02:00N 33°44' W 118°16'0 0.0
2018-Jun-18 01:30N 33°44' W 118°16'0 0.0
2018-Jun-18 01:00N 33°44' W 118°16'0 0.0
2018-Jun-18 00:30N 33°44' W 118°16'1 2.2
2018-Jun-18 00:00N 33°45' W 118°16'1 1.7
2018-Jun-17 23:30N 33°44' W 118°17'1 1.4
2018-Jun-17 23:00N 33°44' W 118°16'2 3.9
2018-Jun-17 22:30N 33°43' W 118°13'2 3.7
2018-Jun-17 22:00N 33°44' W 118°12'0 0.8
2018-Jun-17 21:30N 33°44' W 118°11'1 1.5
2018-Jun-17 21:00N 33°44' W 118°11'1 2.0
2018-Jun-17 20:30N 33°44' W 118°12'3 6.9
2018-Jun-17 20:00N 33°44' W 118°16'0 0.0
2018-Jun-17 19:30N 33°44' W 118°16'0 0.0
2018-Jun-17 19:00N 33°44' W 118°16'0 0.0
2018-Jun-17 18:30N 33°44' W 118°16'0 0.0
2018-Jun-17 18:00N 33°44' W 118°16'0 0.0
2018-Jun-17 17:30N 33°44' W 118°16'1 1.3
2018-Jun-17 17:00N 33°44' W 118°16'0 0.7
2018-Jun-17 16:30N 33°44' W 118°16'2 3.5
2018-Jun-17 16:00N 33°45' W 118°16'0 0.2
2018-Jun-17 15:30N 33°45' W 118°16'1 1.5
2018-Jun-17 15:00N 33°46' W 118°16'2 3.1
2018-Jun-17 14:30N 33°44' W 118°17'1 1.7
2018-Jun-17 14:00N 33°44' W 118°16'0 0.0
2018-Jun-17 13:30N 33°44' W 118°16'0 0.1
2018-Jun-17 13:00N 33°44' W 118°16'0 0.4
2018-Jun-17 12:30N 33°44' W 118°16'1 1.4
2018-Jun-17 12:01N 33°44' W 118°15'0 0.0
2018-Jun-17 11:30N 33°44' W 118°15'0 0.2
2018-Jun-17 11:00N 33°44' W 118°15'0 0.9
2018-Jun-17 10:30N 33°44' W 118°16'0 0.0
2018-Jun-17 10:00N 33°44' W 118°16'0 0.0
2018-Jun-17 09:30N 33°44' W 118°16'0 0.0
2018-Jun-17 09:00N 33°44' W 118°16'0 0.0
2018-Jun-17 08:30N 33°44' W 118°16'0 0.0
2018-Jun-17 08:00N 33°44' W 118°16'0 0.0
2018-Jun-17 07:30N 33°44' W 118°16'0 0.0
2018-Jun-17 07:00N 33°44' W 118°16'0 0.0
2018-Jun-17 06:30N 33°44' W 118°16'0 0.0
2018-Jun-17 06:00N 33°44' W 118°16'0 0.0
2018-Jun-17 05:30N 33°44' W 118°16'0 0.0
2018-Jun-17 04:59N 33°44' W 118°16'0 0.0
2018-Jun-17 04:29N 33°44' W 118°16'2 3.5
2018-Jun-17 04:00N 33°43' W 118°14'2 4.2
2018-Jun-17 03:30N 33°45' W 118°13'0 0.1
2018-Jun-17 03:00N 33°45' W 118°13'2 3.4
2018-Jun-17 02:30N 33°44' W 118°12'0 0.5
2018-Jun-17 02:00N 33°44' W 118°12'1 1.2
2018-Jun-17 01:30N 33°44' W 118°12'1 2.6
2018-Jun-17 01:00N 33°45' W 118°13'0 0.1
2018-Jun-17 00:30N 33°45' W 118°13'3 5.1
2018-Jun-17 00:00N 33°43' W 118°14'1 2.9
2018-Jun-16 23:30N 33°44' W 118°16'0 0.0
2018-Jun-16 23:00N 33°44' W 118°16'0 0.0
2018-Jun-16 22:30N 33°44' W 118°16'0 0.8
2018-Jun-16 22:00N 33°44' W 118°15'1 1.9
2018-Jun-16 21:30N 33°43' W 118°16'1 1.7
2018-Jun-16 21:00N 33°43' W 118°15'1 2.8
2018-Jun-16 20:30N 33°44' W 118°16'3 5.3
2018-Jun-16 19:58N 33°44' W 118°12'2 3.8
2018-Jun-16 19:30N 33°45' W 118°11'0 0.0
2018-Jun-16 19:00N 33°45' W 118°11'3 6.4
2018-Jun-16 18:29N 33°43' W 118°14'1 3.0
2018-Jun-16 18:00N 33°44' W 118°16'0 0.0
2018-Jun-16 17:30N 33°44' W 118°16'0 0.0
2018-Jun-16 17:00N 33°44' W 118°16'0 0.0
2018-Jun-16 16:30N 33°44' W 118°16'0 0.0
2018-Jun-16 16:00N 33°44' W 118°16'0 0.0
2018-Jun-16 15:30N 33°44' W 118°16'0 0.0
2018-Jun-16 15:00N 33°44' W 118°16'0 0.0
2018-Jun-16 14:29N 33°44' W 118°16'0 0.0
2018-Jun-16 14:00N 33°44' W 118°16'0 0.0
2018-Jun-16 13:30N 33°44' W 118°16'1 1.8
2018-Jun-16 13:00N 33°44' W 118°17'1 3.0
2018-Jun-16 12:30N 33°46' W 118°16'0 0.1
2018-Jun-16 12:00N 33°46' W 118°16'0 0.1
2018-Jun-16 11:30N 33°46' W 118°16'0 0.1
2018-Jun-16 11:00N 33°46' W 118°16'0 0.0
2018-Jun-16 10:30N 33°46' W 118°16'0 0.3
2018-Jun-16 10:00N 33°46' W 118°17'1 1.5
2018-Jun-16 09:30N 33°45' W 118°16'2 4.6
2018-Jun-16 09:00N 33°43' W 118°15'1 2.0
2018-Jun-16 08:30N 33°44' W 118°16'0 0.0
2018-Jun-16 08:00N 33°44' W 118°16'1 1.6
2018-Jun-16 07:30N 33°44' W 118°17'2 3.9
2018-Jun-16 07:00N 33°46' W 118°15'0 0.6
2018-Jun-16 06:30N 33°46' W 118°15'3 5.2
2018-Jun-16 05:59N 33°43' W 118°16'1 1.4
2018-Jun-16 05:30N 33°44' W 118°16'0 0.0
2018-Jun-16 05:00N 33°44' W 118°16'0 0.0
2018-Jun-16 04:30N 33°44' W 118°16'0 0.0
2018-Jun-16 04:00N 33°44' W 118°16'1 4.1
2018-Jun-16 03:41N 33°45' W 118°16'0 1.9
2018-Jun-16 03:30N 33°45' W 118°16'11217.4
2018-Jun-16 03:30N 33°44' W 118°16'0 0.0
2018-Jun-16 03:00N 33°44' W 118°16'1459.5
2018-Jun-16 03:00N 33°43' W 118°16'1 2.1
2018-Jun-16 02:30N 33°44' W 118°16'4841.0
2018-Jun-16 02:30N 33°39' W 118°15'4 9.0
2018-Jun-16 02:00N 33°44' W 118°16'8528.5
2018-Jun-16 01:59N 33°36' W 118°16'4 8.2
2018-Jun-16 01:30N 33°32' W 118°18'1244250.9
2018-Jun-16 01:30N 33°44' W 118°16'0 0.1
2018-Jun-16 01:00N 33°44' W 118°16'163283.8
2018-Jun-16 01:00N 33°28' W 118°19'1735.0
2018-Jun-16 00:30N 33°45' W 118°16'22262.2
2018-Jun-16 00:25N 33°23' W 118°21'2252.6
2018-Jun-16 00:00N 33°45' W 118°17'23397.1
2018-Jun-15 23:57N 33°22' W 118°21'2351.9
2018-Jun-15 23:30N 33°45' W 118°17'232848.3
2018-Jun-15 23:30N 33°22' W 118°21'2347.5
2018-Jun-15 23:00N 33°45' W 118°16'23122.5
2018-Jun-15 22:49N 33°22' W 118°21'2272.1
2018-Jun-15 22:30N 33°44' W 118°17'22577.3
2018-Jun-15 22:28N 33°22' W 118°21'2145.3
2018-Jun-15 22:00N 33°42' W 118°15'211558.7
2018-Jun-15 22:00N 33°22' W 118°21'2245.2
2018-Jun-15 21:30N 33°44' W 118°16'222825.4
2018-Jun-15 21:30N 33°22' W 118°21'2244.7
2018-Jun-15 21:00N 33°44' W 118°16'22376.7
2018-Jun-15 20:57N 33°22' W 118°21'2249.4
2018-Jun-15 20:30N 33°44' W 118°16'224944.4
2018-Jun-15 20:30N 33°22' W 118°21'2244.6
2018-Jun-15 20:00N 33°44' W 118°16'2283.3
2018-Jun-15 19:45N 33°22' W 118°21'2397.8
2018-Jun-15 19:30N 33°45' W 118°16'23144.2
2018-Jun-15 19:21N 33°22' W 118°21'2368.6
2018-Jun-15 19:00N 33°45' W 118°16'1 2.6
2018-Jun-15 18:30N 33°44' W 118°16'22180.4
2018-Jun-15 18:23N 33°22' W 118°21'2257.1
2018-Jun-15 18:00N 33°44' W 118°16'22342.5
2018-Jun-15 17:56N 33°22' W 118°21'2251.5
2018-Jun-15 17:30N 33°44' W 118°16'19137.3
2018-Jun-15 17:22N 33°25' W 118°20'1952.4
2018-Jun-15 17:00N 33°44' W 118°16'16666.7
2018-Jun-15 16:59N 33°28' W 118°19'1633.5
2018-Jun-15 16:30N 33°44' W 118°16'12926.4
2018-Jun-15 16:29N 33°32' W 118°18'4 7.8
2018-Jun-15 16:00N 33°35' W 118°17'92821.1
2018-Jun-15 16:00N 33°44' W 118°16'5 9.7
2018-Jun-15 15:30N 33°39' W 118°16'5140.4
2018-Jun-15 15:28N 33°44' W 118°16'1 2.6
2018-Jun-15 15:00N 33°43' W 118°15'14410.6
2018-Jun-15 15:00N 33°44' W 118°16'1 1.4
2018-Jun-15 14:30N 33°44' W 118°17'181.5
2018-Jun-15 14:30N 33°44' W 118°16'1 2.6
2018-Jun-15 14:00N 33°45' W 118°16'12149.2
2018-Jun-15 14:00N 33°44' W 118°16'1 2.5
2018-Jun-15 13:30N 33°45' W 118°16'1 2.3
2018-Jun-15 13:00N 33°44' W 118°16'1 1.1
2018-Jun-15 12:30N 33°44' W 118°16'0 0.0
2018-Jun-15 11:58N 33°44' W 118°16'0 0.0
2018-Jun-15 11:30N 33°44' W 118°16'0 0.0
2018-Jun-15 11:00N 33°44' W 118°16'0 0.0
2018-Jun-15 10:30N 33°44' W 118°16'0 0.0
2018-Jun-15 10:00N 33°44' W 118°16'0 0.5
2018-Jun-15 09:30N 33°44' W 118°16'2 3.8
2018-Jun-15 09:00N 33°45' W 118°17'0 0.5
2018-Jun-15 08:30N 33°46' W 118°17'2 3.7
2018-Jun-15 08:00N 33°44' W 118°16'0 0.0
2018-Jun-15 07:29N 33°44' W 118°16'0 0.0
2018-Jun-15 06:59N 33°44' W 118°16'0 0.0
2018-Jun-15 06:30N 33°44' W 118°16'0 0.0
2018-Jun-15 06:00N 33°44' W 118°16'0 0.0
2018-Jun-15 05:30N 33°44' W 118°16'0 0.0
2018-Jun-15 05:00N 33°44' W 118°16'0 0.0
2018-Jun-15 04:30N 33°44' W 118°16'0 0.0
2018-Jun-15 04:00N 33°44' W 118°16'0 0.0
2018-Jun-15 03:29N 33°44' W 118°16'0 0.0
2018-Jun-15 02:57N 33°44' W 118°16'0 0.3
2018-Jun-15 02:30N 33°44' W 118°16'0 0.8
2018-Jun-15 02:01N 33°44' W 118°15'0 0.9
2018-Jun-15 01:30N 33°44' W 118°16'0 0.0
2018-Jun-15 01:00N 33°44' W 118°16'0 0.1
2018-Jun-15 00:30N 33°44' W 118°16'2 3.2
2018-Jun-15 00:00N 33°43' W 118°14'34903.5
2018-Jun-15 00:00N 33°45' W 118°16'0 0.0
2018-Jun-14 23:30N 33°45' W 118°16'33087.6
2018-Jun-14 23:30N 33°46' W 118°14'3 5.1
2018-Jun-14 23:00N 33°45' W 118°16'31040.4
2018-Jun-14 23:00N 33°45' W 118°13'3 6.6
2018-Jun-14 22:30N 33°44' W 118°16'72675.8
2018-Jun-14 22:30N 33°44' W 118°08'611.9
2018-Jun-14 22:00N 33°42' W 118°15'82930.0
2018-Jun-14 22:00N 33°44' W 118°06'1122.8
2018-Jun-14 21:30N 33°39' W 118°18'11822.3
2018-Jun-14 21:30N 33°44' W 118°06'2 4.3
2018-Jun-14 21:00N 33°44' W 118°08'131046.1
2018-Jun-14 21:00N 33°37' W 118°21'3 7.1
2018-Jun-14 20:30N 33°35' W 118°25'16565.7
2018-Jun-14 20:29N 33°45' W 118°09'0 0.0
2018-Jun-14 20:00N 33°45' W 118°09'202281.3
2018-Jun-14 20:00N 33°34' W 118°29'4 7.3
2018-Jun-14 19:30N 33°32' W 118°32'23602.5
2018-Jun-14 19:28N 33°45' W 118°09'0 0.0
2018-Jun-14 19:00N 33°45' W 118°09'28183.7
2018-Jun-14 18:51N 33°29' W 118°37'2881.1
2018-Jun-14 18:30N 33°45' W 118°09'28387.7
2018-Jun-14 18:26N 33°26' W 118°34'2660.7
2018-Jun-14 18:00N 33°43' W 118°11'1 2.7
2018-Jun-14 17:30N 33°44' W 118°10'3 5.9
2018-Jun-14 17:00N 33°43' W 118°13'2 4.2
2018-Jun-14 16:30N 33°44' W 118°16'1 1.6
2018-Jun-14 16:01N 33°43' W 118°16'235463.4
2018-Jun-14 16:00N 33°25' W 118°33'2649.8
2018-Jun-14 15:29N 33°45' W 118°12'2647240.7
2018-Jun-14 15:29N 33°28' W 118°36'2552.7
2018-Jun-14 15:00N 33°44' W 118°13'237418.7
2018-Jun-14 15:00N 33°30' W 118°35'2142.1
2018-Jun-14 14:30N 33°44' W 118°16'171202.2
2018-Jun-14 14:30N 33°32' W 118°31'1633.7
2018-Jun-14 14:00N 33°43' W 118°16'134115.7
2018-Jun-14 14:00N 33°34' W 118°27'4 7.9
2018-Jun-14 13:30N 33°37' W 118°23'1138625.9
2018-Jun-14 13:30N 33°46' W 118°16'1 1.3
2018-Jun-14 13:00N 33°45' W 118°16'64667.8
2018-Jun-14 13:00N 33°39' W 118°19'713.2
2018-Jun-14 12:30N 33°45' W 118°17'41136.1
2018-Jun-14 12:30N 33°42' W 118°16'2 3.6
2018-Jun-14 12:00N 33°43' W 118°16'158.8
2018-Jun-14 12:00N 33°44' W 118°16'3 6.2
2018-Jun-14 11:31N 33°45' W 118°13'31493.3
2018-Jun-14 11:30N 33°45' W 118°16'2 4.2
2018-Jun-14 11:00N 33°45' W 118°14'1 1.6
2018-Jun-14 10:30N 33°45' W 118°13'2 3.9
2018-Jun-14 10:01N 33°44' W 118°11'3 6.6
2018-Jun-14 09:31N 33°43' W 118°15'1 2.0
2018-Jun-14 09:00N 33°44' W 118°16'0 0.0
2018-Jun-14 08:30N 33°44' W 118°16'0 0.0
2018-Jun-14 08:00N 33°44' W 118°16'0 0.0
2018-Jun-14 07:30N 33°44' W 118°16'0 0.0
2018-Jun-14 07:00N 33°44' W 118°16'0 0.0
2018-Jun-14 06:30N 33°44' W 118°16'1 2.6
2018-Jun-14 06:00N 33°45' W 118°16'1 1.3
2018-Jun-14 05:31N 33°45' W 118°16'2 3.1
2018-Jun-14 05:00N 33°44' W 118°16'1 1.3
2018-Jun-14 04:30N 33°44' W 118°16'0 0.0
2018-Jun-14 04:00N 33°44' W 118°16'1 2.7
2018-Jun-14 03:30N 33°43' W 118°14'3 5.7
2018-Jun-14 03:00N 33°46' W 118°13'1 1.6
2018-Jun-14 02:30N 33°46' W 118°13'0 0.7
2018-Jun-14 02:00N 33°46' W 118°13'1 1.9
2018-Jun-14 01:30N 33°45' W 118°13'0 0.0
2018-Jun-14 01:00N 33°45' W 118°13'0 0.0
2018-Jun-14 00:30N 33°45' W 118°13'0 0.0
2018-Jun-14 00:00N 33°45' W 118°13'0 0.0
2018-Jun-13 23:30N 33°45' W 118°13'0 0.0
2018-Jun-13 23:00N 33°45' W 118°13'0 0.0
2018-Jun-13 22:30N 33°45' W 118°13'1 1.4
2018-Jun-13 22:01N 33°45' W 118°12'0 1.0
2018-Jun-13 21:30N 33°45' W 118°13'1 1.8
2018-Jun-13 21:00N 33°44' W 118°13'2 4.8
2018-Jun-13 20:30N 33°44' W 118°16'0 0.0
2018-Jun-13 20:00N 33°44' W 118°16'0 0.0
2018-Jun-13 19:30N 33°44' W 118°16'0 0.0
2018-Jun-13 19:00N 33°44' W 118°16'0 0.0
2018-Jun-13 18:30N 33°44' W 118°16'0 0.0
2018-Jun-13 17:59N 33°44' W 118°16'0 0.0
2018-Jun-13 17:30N 33°44' W 118°16'0 0.0
2018-Jun-13 16:57N 33°44' W 118°16'0 0.0
2018-Jun-13 16:30N 33°44' W 118°16'0 0.0
2018-Jun-13 16:00N 33°44' W 118°16'0 0.0
2018-Jun-13 15:30N 33°44' W 118°16'0 0.0
2018-Jun-13 15:00N 33°44' W 118°16'0 0.0
2018-Jun-13 14:30N 33°44' W 118°16'1 1.3
2018-Jun-13 13:59N 33°44' W 118°16'1 1.3
2018-Jun-13 13:30N 33°44' W 118°16'0 0.1
2018-Jun-13 13:00N 33°44' W 118°16'0 0.0
2018-Jun-13 12:30N 33°44' W 118°16'3 5.1
2018-Jun-13 12:00N 33°45' W 118°13'1 2.3
2018-Jun-13 11:30N 33°46' W 118°13'0 0.4
2018-Jun-13 11:00N 33°46' W 118°13'0 0.5
2018-Jun-13 10:30N 33°46' W 118°13'0 0.0
2018-Jun-13 10:00N 33°46' W 118°13'0 0.0
2018-Jun-13 09:30N 33°46' W 118°13'0 0.0
2018-Jun-13 09:00N 33°46' W 118°13'0 0.0
2018-Jun-13 08:30N 33°46' W 118°13'0 0.0
2018-Jun-13 08:00N 33°46' W 118°13'0 0.0
2018-Jun-13 07:30N 33°46' W 118°13'1 1.8
2018-Jun-13 07:00N 33°45' W 118°13'0 0.0
2018-Jun-13 06:30N 33°45' W 118°13'0 0.0
2018-Jun-13 06:00N 33°45' W 118°13'0 0.0
2018-Jun-13 05:30N 33°45' W 118°13'1 1.4
2018-Jun-13 05:00N 33°45' W 118°13'1 1.9
2018-Jun-13 04:30N 33°44' W 118°13'3 5.0
2018-Jun-13 04:00N 33°43' W 118°16'1 1.3
2018-Jun-13 03:30N 33°44' W 118°16'0 0.0
2018-Jun-13 03:00N 33°44' W 118°16'0 0.7
2018-Jun-13 02:30N 33°44' W 118°16'2 4.0
2018-Jun-13 02:00N 33°45' W 118°17'0 0.7
2018-Jun-13 01:30N 33°45' W 118°16'0 0.0
2018-Jun-13 01:00N 33°45' W 118°16'0 0.0
2018-Jun-13 00:30N 33°45' W 118°16'3 5.2
2018-Jun-13 00:00N 33°46' W 118°13'0 0.0
2018-Jun-12 23:30N 33°46' W 118°13'0 0.1
2018-Jun-12 23:00N 33°46' W 118°13'1 1.3
2018-Jun-12 22:30N 33°46' W 118°13'2 3.5
2018-Jun-12 22:00N 33°44' W 118°12'1 2.5
2018-Jun-12 21:30N 33°44' W 118°11'543.3
2018-Jun-12 21:24N 33°45' W 118°16'0 0.0
2018-Jun-12 21:00N 33°45' W 118°16'0 0.0
2018-Jun-12 20:30N 33°45' W 118°16'3134.0
2018-Jun-12 20:29N 33°43' W 118°13'2 4.2
2018-Jun-12 20:00N 33°44' W 118°16'0 0.9
2018-Jun-12 19:30N 33°43' W 118°16'3 5.5
2018-Jun-12 19:00N 33°46' W 118°15'0 0.2
2018-Jun-12 18:30N 33°46' W 118°15'1 1.0
2018-Jun-12 18:00N 33°46' W 118°15'2 3.7
2018-Jun-12 17:30N 33°44' W 118°16'0 0.0
2018-Jun-12 17:00N 33°44' W 118°16'0 0.0
2018-Jun-12 16:30N 33°44' W 118°16'1 2.7
2018-Jun-12 16:00N 33°43' W 118°14'1 2.8
2018-Jun-12 15:30N 33°44' W 118°13'2 3.1
2018-Jun-12 15:00N 33°43' W 118°15'3 5.6
2018-Jun-12 14:30N 33°45' W 118°16'0 0.6
2018-Jun-12 14:00N 33°46' W 118°16'0 0.0
2018-Jun-12 13:30N 33°46' W 118°16'0 0.0
2018-Jun-12 13:00N 33°46' W 118°16'0 0.9
2018-Jun-12 12:31N 33°45' W 118°16'1 2.8
2018-Jun-12 12:00N 33°44' W 118°16'0 0.9
2018-Jun-12 11:30N 33°43' W 118°16'1 1.5
2018-Jun-12 11:00N 33°43' W 118°15'1 1.8
2018-Jun-12 10:30N 33°44' W 118°16'0 0.0
2018-Jun-12 10:00N 33°44' W 118°16'0 0.0
2018-Jun-12 09:30N 33°44' W 118°16'1 1.2
2018-Jun-12 09:01N 33°43' W 118°16'3 5.4
2018-Jun-12 08:30N 33°46' W 118°15'0 0.0
2018-Jun-12 08:00N 33°46' W 118°15'0 0.0
2018-Jun-12 07:30N 33°46' W 118°15'0 0.0
2018-Jun-12 07:00N 33°46' W 118°15'0 0.0
2018-Jun-12 06:30N 33°46' W 118°15'0 0.0
2018-Jun-12 06:00N 33°46' W 118°15'1 2.9
2018-Jun-12 05:30N 33°45' W 118°17'0 0.3
2018-Jun-12 05:00N 33°46' W 118°17'2 4.1
2018-Jun-12 04:30N 33°44' W 118°16'0 0.4
2018-Jun-12 04:00N 33°44' W 118°16'0 0.0
2018-Jun-12 03:30N 33°44' W 118°16'0 0.0
2018-Jun-12 03:00N 33°44' W 118°16'0 0.0
2018-Jun-12 02:30N 33°44' W 118°16'0 0.0
2018-Jun-12 02:00N 33°44' W 118°16'0 0.0
2018-Jun-12 01:30N 33°44' W 118°16'0 0.4
2018-Jun-12 01:00N 33°44' W 118°16'1 2.2
2018-Jun-12 00:30N 33°43' W 118°15'3 5.8
2018-Jun-12 00:00N 33°44' W 118°12'1 2.2
2018-Jun-11 23:30N 33°44' W 118°13'1 2.6
2018-Jun-11 23:00N 33°43' W 118°14'3 6.3
2018-Jun-11 22:31N 33°46' W 118°17'1 1.2
2018-Jun-11 22:00N 33°45' W 118°16'1 1.4
2018-Jun-11 21:30N 33°46' W 118°16'1 1.5
2018-Jun-11 21:00N 33°45' W 118°16'0 0.0
2018-Jun-11 20:30N 33°45' W 118°16'0 0.0
2018-Jun-11 20:00N 33°45' W 118°16'0 0.0
2018-Jun-11 19:30N 33°45' W 118°16'0 0.0
2018-Jun-11 19:00N 33°45' W 118°16'0 0.4
2018-Jun-11 18:30N 33°45' W 118°16'2 4.8
2018-Jun-11 18:00N 33°43' W 118°15'3 6.0
2018-Jun-11 17:30N 33°45' W 118°12'1 1.9
2018-Jun-11 17:00N 33°45' W 118°13'0 0.9
2018-Jun-11 16:30N 33°46' W 118°13'3 5.8
2018-Jun-11 16:00N 33°43' W 118°14'1 2.9
2018-Jun-11 15:30N 33°44' W 118°16'2 3.1
2018-Jun-11 15:00N 33°43' W 118°14'3 5.6
2018-Jun-11 14:30N 33°46' W 118°13'2 3.9
2018-Jun-11 13:59N 33°44' W 118°13'2 4.2
2018-Jun-11 13:30N 33°44' W 118°16'0 0.1
2018-Jun-11 13:00N 33°44' W 118°16'1 2.7
2018-Jun-11 12:30N 33°45' W 118°16'0 0.0
2018-Jun-11 12:00N 33°45' W 118°16'2 3.1
2018-Jun-11 11:30N 33°43' W 118°16'1 2.4
2018-Jun-11 11:00N 33°43' W 118°15'1 1.6
2018-Jun-11 10:29N 33°43' W 118°16'0 0.0
2018-Jun-11 10:00N 33°43' W 118°16'0 0.0
2018-Jun-11 09:30N 33°43' W 118°16'0 0.0
2018-Jun-11 09:00N 33°43' W 118°16'0 0.0
2018-Jun-11 08:30N 33°43' W 118°16'0 0.0
2018-Jun-11 08:00N 33°43' W 118°16'0 0.0
2018-Jun-11 07:27N 33°43' W 118°16'0 0.0
2018-Jun-11 07:00N 33°43' W 118°16'0 0.0
2018-Jun-11 06:30N 33°43' W 118°16'2 3.1
2018-Jun-11 06:00N 33°45' W 118°16'1 2.5
2018-Jun-11 05:30N 33°46' W 118°16'0 0.3
2018-Jun-11 04:59N 33°46' W 118°16'2 4.2
2018-Jun-11 04:29N 33°44' W 118°16'1 1.2
2018-Jun-11 04:00N 33°44' W 118°16'0 0.0
2018-Jun-11 03:30N 33°44' W 118°16'0 0.0
2018-Jun-11 03:00N 33°44' W 118°16'0 0.0
2018-Jun-11 02:30N 33°44' W 118°16'0 0.0
2018-Jun-11 02:00N 33°44' W 118°16'2 4.8
2018-Jun-11 01:30N 33°44' W 118°13'2 4.9
2018-Jun-11 01:00N 33°44' W 118°16'1 2.8
2018-Jun-11 00:30N 33°43' W 118°14'2 3.2
2018-Jun-11 00:00N 33°44' W 118°13'1 2.9
2018-Jun-10 23:30N 33°43' W 118°14'1 2.8
2018-Jun-10 23:00N 33°44' W 118°16'0 0.0
2018-Jun-10 22:30N 33°44' W 118°16'0 0.0
2018-Jun-10 22:00N 33°44' W 118°16'0 0.0
2018-Jun-10 21:30N 33°44' W 118°16'0 0.0
2018-Jun-10 20:59N 33°44' W 118°16'0 0.2
2018-Jun-10 20:30N 33°44' W 118°16'2 3.4
2018-Jun-10 20:00N 33°45' W 118°16'1 2.8
2018-Jun-10 19:30N 33°44' W 118°17'1 1.7
2018-Jun-10 19:00N 33°44' W 118°16'0 0.0
2018-Jun-10 18:30N 33°44' W 118°16'0 0.0
2018-Jun-10 17:59N 33°44' W 118°16'0 0.0
2018-Jun-10 17:30N 33°44' W 118°16'0 0.0
2018-Jun-10 17:00N 33°44' W 118°16'0 0.0
2018-Jun-10 16:30N 33°44' W 118°16'0 0.0
2018-Jun-10 16:00N 33°44' W 118°16'0 0.0
2018-Jun-10 15:30N 33°44' W 118°16'0 0.0
2018-Jun-10 15:00N 33°44' W 118°16'1 1.4
2018-Jun-10 14:00N 33°45' W 118°16'1 2.3
2018-Jun-10 13:30N 33°44' W 118°17'1 1.6
2018-Jun-10 13:00N 33°44' W 118°16'0 0.0
2018-Jun-10 12:30N 33°44' W 118°16'2 3.0
2018-Jun-10 11:59N 33°43' W 118°14'2 5.0
2018-Jun-10 11:30N 33°45' W 118°13'1 1.6
2018-Jun-10 11:00N 33°46' W 118°13'0 0.0
2018-Jun-10 10:30N 33°46' W 118°13'0 0.0
2018-Jun-10 10:00N 33°46' W 118°13'1 1.4
2018-Jun-10 09:30N 33°45' W 118°13'0 0.0
2018-Jun-10 08:59N 33°45' W 118°13'0 0.0
2018-Jun-10 08:30N 33°45' W 118°13'0 0.0
2018-Jun-10 08:00N 33°45' W 118°13'0 0.0
2018-Jun-10 07:30N 33°45' W 118°13'0 0.0
2018-Jun-10 07:00N 33°45' W 118°13'0 0.0
2018-Jun-10 06:30N 33°45' W 118°13'1 2.6
2018-Jun-10 06:00N 33°44' W 118°13'1 2.6
2018-Jun-10 05:30N 33°44' W 118°15'1 1.1
2018-Jun-10 05:00N 33°44' W 118°16'0 0.0
2018-Jun-10 04:30N 33°44' W 118°16'0 0.0
2018-Jun-10 04:00N 33°44' W 118°16'0 0.0
2018-Jun-10 03:30N 33°44' W 118°16'0 0.0
2018-Jun-10 03:00N 33°44' W 118°16'1 2.1
2018-Jun-10 02:30N 33°45' W 118°17'1 1.8
2018-Jun-10 02:00N 33°45' W 118°17'1 2.8
2018-Jun-10 01:30N 33°44' W 118°17'1 1.4
2018-Jun-10 01:00N 33°44' W 118°16'0 0.0
2018-Jun-10 00:30N 33°44' W 118°16'0 0.0
2018-Jun-10 00:00N 33°44' W 118°16'0 0.0
2018-Jun-09 23:30N 33°44' W 118°16'0 0.0
2018-Jun-09 23:00N 33°44' W 118°16'0 0.0
2018-Jun-09 22:30N 33°44' W 118°16'0 0.0
2018-Jun-09 22:00N 33°44' W 118°16'0 0.0
2018-Jun-09 21:29N 33°44' W 118°16'0 0.0
2018-Jun-09 21:00N 33°44' W 118°16'0 0.0
2018-Jun-09 20:30N 33°44' W 118°16'1 1.3
2018-Jun-09 20:00N 33°43' W 118°16'3 6.2
2018-Jun-09 19:30N 33°44' W 118°12'2 3.2
2018-Jun-09 19:00N 33°45' W 118°11'2 4.2
2018-Jun-09 18:30N 33°43' W 118°13'2 5.0
2018-Jun-09 18:00N 33°44' W 118°16'0 0.0
2018-Jun-09 17:30N 33°44' W 118°16'0 0.0
2018-Jun-09 17:00N 33°44' W 118°16'0 0.0
2018-Jun-09 16:30N 33°44' W 118°16'0 0.0
2018-Jun-09 16:00N 33°44' W 118°16'0 0.0
2018-Jun-09 15:00N 33°44' W 118°16'1 1.5
2018-Jun-09 14:30N 33°43' W 118°16'2 2.9
2018-Jun-09 14:00N 33°43' W 118°14'2 3.6
2018-Jun-09 13:30N 33°44' W 118°12'3 5.3
2018-Jun-09 13:00N 33°44' W 118°09'3 6.8
2018-Jun-09 12:30N 33°45' W 118°13'3 6.1
2018-Jun-09 12:00N 33°43' W 118°15'2 4.3
2018-Jun-09 11:30N 33°45' W 118°16'1 1.9
2018-Jun-09 11:00N 33°46' W 118°16'1 1.9
2018-Jun-09 10:30N 33°45' W 118°16'0 0.0
2018-Jun-09 10:00N 33°45' W 118°16'0 0.0
2018-Jun-09 09:30N 33°45' W 118°16'0 0.0
2018-Jun-09 09:00N 33°45' W 118°16'0 0.0
2018-Jun-09 08:30N 33°45' W 118°16'0 0.0
2018-Jun-09 08:00N 33°45' W 118°16'0 0.0
2018-Jun-09 07:30N 33°45' W 118°16'0 0.0
2018-Jun-09 07:00N 33°45' W 118°16'0 0.0
2018-Jun-09 06:30N 33°45' W 118°16'0 0.0
2018-Jun-09 06:00N 33°45' W 118°16'1 2.4
2018-Jun-09 05:31N 33°46' W 118°16'0 0.1
2018-Jun-09 05:00N 33°46' W 118°16'2 4.2
2018-Jun-09 04:30N 33°44' W 118°16'0 0.0
2018-Jun-09 03:59N 33°44' W 118°16'0 0.0
2018-Jun-09 03:30N 33°44' W 118°16'0 0.0
2018-Jun-09 03:00N 33°44' W 118°16'2 3.8
2018-Jun-09 02:29N 33°44' W 118°13'1 2.5
2018-Jun-09 02:00N 33°44' W 118°12'3 6.2
2018-Jun-09 01:30N 33°43' W 118°16'1 1.9
2018-Jun-09 01:00N 33°44' W 118°16'0 0.0
2018-Jun-09 00:30N 33°44' W 118°16'0 0.0
2018-Jun-09 00:00N 33°44' W 118°16'0 0.0
2018-Jun-08 23:30N 33°44' W 118°16'0 0.0
2018-Jun-08 23:00N 33°44' W 118°16'  
Track history (hours):
 
Tides and Currents Weather Stations Pressure Air Temp Water Temp Dewpoint Dewpoint Depression Visibility Wind Speed Wind Dir Waves Ship Positions

Lela Franco

Owner: Harley Marine Services, Inc, Seattle, WA. More information available from US FCC via Universal Licensing System and Coast Guard Vessel Documentation Center.

Last reported at 2018-Jun-18 23:00 UTC. Time now 2018-Jun-18 23:19 UTC.
Position N 33°45' W 118°16'.

Length 18 m; draft 3 m.

Type: Towing. MMSI: 366926730.

Date/timePositionNaut miles runAvg speedWind from/ knotsBaromVisibWave heightAir tempDewpointWater temp
2018-Jun-18 23:00N 33°45' W 118°16'181047.1
2018-Jun-18 22:59N 33°27' W 118°17'1836.3
2018-Jun-18 22:30N 33°45' W 118°16'3 5.1
2018-Jun-18 22:00N 33°43' W 118°15'1 2.9
2018-Jun-18 21:30N 33°44' W 118°16'0 0.0
2018-Jun-18 21:00N 33°44' W 118°16'0 0.1
2018-Jun-18 20:30N 33°44' W 118°16'1 2.7
2018-Jun-18 20:00N 33°43' W 118°15'1 2.0
2018-Jun-18 19:30N 33°43' W 118°16'0 0.9
2018-Jun-18 19:00N 33°44' W 118°16'2320671.7
2018-Jun-18 19:00N 33°21' W 118°18'2347.1
2018-Jun-18 18:30N 33°44' W 118°16'195291.0
2018-Jun-18 18:30N 33°25' W 118°18'1938.5
2018-Jun-18 18:00N 33°44' W 118°16'151230.8
2018-Jun-18 18:00N 33°29' W 118°17'1530.8
2018-Jun-18 17:30N 33°44' W 118°16'113093.6
2018-Jun-18 17:30N 33°33' W 118°16'1122.5
2018-Jun-18 17:00N 33°44' W 118°16'76577.4
2018-Jun-18 17:00N 33°37' W 118°16'714.6
2018-Jun-18 16:30N 33°44' W 118°16'36112.5
2018-Jun-18 16:30N 33°40' W 118°15'3 5.4
2018-Jun-18 16:00N 33°43' W 118°16'1256.4
2018-Jun-18 16:00N 33°44' W 118°16'0 0.0
2018-Jun-18 15:30N 33°44' W 118°16'11379.2
2018-Jun-18 15:30N 33°43' W 118°16'1 3.0
2018-Jun-18 15:00N 33°45' W 118°17'1485.2
2018-Jun-18 15:00N 33°45' W 118°16'1 1.7
2018-Jun-18 14:30N 33°45' W 118°17'1 1.9
2018-Jun-18 14:00N 33°44' W 118°16'0 0.1
2018-Jun-18 13:30N 33°44' W 118°16'0 0.8
2018-Jun-18 13:00N 33°44' W 118°16'2 4.6
2018-Jun-18 12:30N 33°46' W 118°16'1 1.1
2018-Jun-18 12:00N 33°45' W 118°17'2 3.6
2018-Jun-18 11:29N 33°44' W 118°16'1 3.1
2018-Jun-18 11:00N 33°43' W 118°15'1 2.8
2018-Jun-18 10:30N 33°44' W 118°16'0 0.0
2018-Jun-18 10:00N 33°44' W 118°16'0 0.0
2018-Jun-18 09:30N 33°44' W 118°16'0 0.0
2018-Jun-18 09:00N 33°44' W 118°16'0 0.0
2018-Jun-18 08:30N 33°44' W 118°16'0 0.0
2018-Jun-18 08:00N 33°44' W 118°16'1 1.2
2018-Jun-18 07:30N 33°43' W 118°16'2 3.3
2018-Jun-18 07:00N 33°45' W 118°16'1 2.2
2018-Jun-18 06:30N 33°44' W 118°16'0 0.0
2018-Jun-18 06:00N 33°44' W 118°16'0 0.0
2018-Jun-18 05:30N 33°44' W 118°16'0 0.0
2018-Jun-18 05:00N 33°44' W 118°16'0 0.0
2018-Jun-18 04:30N 33°44' W 118°16'0 0.0
2018-Jun-18 04:00N 33°44' W 118°16'0 0.0
2018-Jun-18 03:30N 33°44' W 118°16'0 0.0
2018-Jun-18 03:00N 33°44' W 118°16'0 0.0
2018-Jun-18 02:30N 33°44' W 118°16'0 0.0
2018-Jun-18 02:00N 33°44' W 118°16'0 0.0
2018-Jun-18 01:30N 33°44' W 118°16'0 0.0
2018-Jun-18 01:00N 33°44' W 118°16'0 0.0
2018-Jun-18 00:30N 33°44' W 118°16'1 2.2
2018-Jun-18 00:00N 33°45' W 118°16'1 1.7
2018-Jun-17 23:30N 33°44' W 118°17'1 1.4
2018-Jun-17 23:00N 33°44' W 118°16'2 3.9
2018-Jun-17 22:30N 33°43' W 118°13'2 3.7
2018-Jun-17 22:00N 33°44' W 118°12'0 0.8
2018-Jun-17 21:30N 33°44' W 118°11'1 1.5
2018-Jun-17 21:00N 33°44' W 118°11'1 2.0
2018-Jun-17 20:30N 33°44' W 118°12'3 6.9
2018-Jun-17 20:00N 33°44' W 118°16'0 0.0
2018-Jun-17 19:30N 33°44' W 118°16'0 0.0
2018-Jun-17 19:00N 33°44' W 118°16'0 0.0
2018-Jun-17 18:30N 33°44' W 118°16'0 0.0
2018-Jun-17 18:00N 33°44' W 118°16'0 0.0
2018-Jun-17 17:30N 33°44' W 118°16'1 1.3
2018-Jun-17 17:00N 33°44' W 118°16'0 0.7
2018-Jun-17 16:30N 33°44' W 118°16'2 3.5
2018-Jun-17 16:00N 33°45' W 118°16'0 0.2
2018-Jun-17 15:30N 33°45' W 118°16'1 1.5
2018-Jun-17 15:00N 33°46' W 118°16'2 3.1
2018-Jun-17 14:30N 33°44' W 118°17'1 1.7
2018-Jun-17 14:00N 33°44' W 118°16'0 0.0
2018-Jun-17 13:30N 33°44' W 118°16'0 0.1
2018-Jun-17 13:00N 33°44' W 118°16'0 0.4
2018-Jun-17 12:30N 33°44' W 118°16'1 1.4
2018-Jun-17 12:01N 33°44' W 118°15'0 0.0
2018-Jun-17 11:30N 33°44' W 118°15'0 0.2
2018-Jun-17 11:00N 33°44' W 118°15'0 0.9
2018-Jun-17 10:30N 33°44' W 118°16'0 0.0
2018-Jun-17 10:00N 33°44' W 118°16'0 0.0
2018-Jun-17 09:30N 33°44' W 118°16'0 0.0
2018-Jun-17 09:00N 33°44' W 118°16'0 0.0
2018-Jun-17 08:30N 33°44' W 118°16'0 0.0
2018-Jun-17 08:00N 33°44' W 118°16'0 0.0
2018-Jun-17 07:30N 33°44' W 118°16'0 0.0
2018-Jun-17 07:00N 33°44' W 118°16'0 0.0
2018-Jun-17 06:30N 33°44' W 118°16'0 0.0
2018-Jun-17 06:00N 33°44' W 118°16'0 0.0
2018-Jun-17 05:30N 33°44' W 118°16'0 0.0
2018-Jun-17 04:59N 33°44' W 118°16'0 0.0
2018-Jun-17 04:29N 33°44' W 118°16'2 3.5
2018-Jun-17 04:00N 33°43' W 118°14'2 4.2
2018-Jun-17 03:30N 33°45' W 118°13'0 0.1
2018-Jun-17 03:00N 33°45' W 118°13'2 3.4
2018-Jun-17 02:30N 33°44' W 118°12'0 0.5
2018-Jun-17 02:00N 33°44' W 118°12'1 1.2
2018-Jun-17 01:30N 33°44' W 118°12'1 2.6
2018-Jun-17 01:00N 33°45' W 118°13'0 0.1
2018-Jun-17 00:30N 33°45' W 118°13'3 5.1
2018-Jun-17 00:00N 33°43' W 118°14'1 2.9
2018-Jun-16 23:30N 33°44' W 118°16'0 0.0
2018-Jun-16 23:00N 33°44' W 118°16'0 0.0
2018-Jun-16 22:30N 33°44' W 118°16'0 0.8
2018-Jun-16 22:00N 33°44' W 118°15'1 1.9
2018-Jun-16 21:30N 33°43' W 118°16'1 1.7
2018-Jun-16 21:00N 33°43' W 118°15'1 2.8
2018-Jun-16 20:30N 33°44' W 118°16'3 5.3
2018-Jun-16 19:58N 33°44' W 118°12'2 3.8
2018-Jun-16 19:30N 33°45' W 118°11'0 0.0
2018-Jun-16 19:00N 33°45' W 118°11'3 6.4
2018-Jun-16 18:29N 33°43' W 118°14'1 3.0
2018-Jun-16 18:00N 33°44' W 118°16'0 0.0
2018-Jun-16 17:30N 33°44' W 118°16'0 0.0
2018-Jun-16 17:00N 33°44' W 118°16'0 0.0
2018-Jun-16 16:30N 33°44' W 118°16'0 0.0
2018-Jun-16 16:00N 33°44' W 118°16'0 0.0
2018-Jun-16 15:30N 33°44' W 118°16'0 0.0
2018-Jun-16 15:00N 33°44' W 118°16'0 0.0
2018-Jun-16 14:29N 33°44' W 118°16'0 0.0
2018-Jun-16 14:00N 33°44' W 118°16'0 0.0
2018-Jun-16 13:30N 33°44' W 118°16'1 1.8
2018-Jun-16 13:00N 33°44' W 118°17'1 3.0
2018-Jun-16 12:30N 33°46' W 118°16'0 0.1
2018-Jun-16 12:00N 33°46' W 118°16'0 0.1
2018-Jun-16 11:30N 33°46' W 118°16'0 0.1
2018-Jun-16 11:00N 33°46' W 118°16'0 0.0
2018-Jun-16 10:30N 33°46' W 118°16'0 0.3
2018-Jun-16 10:00N 33°46' W 118°17'1 1.5
2018-Jun-16 09:30N 33°45' W 118°16'2 4.6
2018-Jun-16 09:00N 33°43' W 118°15'1 2.0
2018-Jun-16 08:30N 33°44' W 118°16'0 0.0
2018-Jun-16 08:00N 33°44' W 118°16'1 1.6
2018-Jun-16 07:30N 33°44' W 118°17'2 3.9
2018-Jun-16 07:00N 33°46' W 118°15'0 0.6
2018-Jun-16 06:30N 33°46' W 118°15'3 5.2
2018-Jun-16 05:59N 33°43' W 118°16'1 1.4
2018-Jun-16 05:30N 33°44' W 118°16'0 0.0
2018-Jun-16 05:00N 33°44' W 118°16'0 0.0
2018-Jun-16 04:30N 33°44' W 118°16'0 0.0
2018-Jun-16 04:00N 33°44' W 118°16'1 4.1
2018-Jun-16 03:41N 33°45' W 118°16'0 1.9
2018-Jun-16 03:30N 33°45' W 118°16'11217.4
2018-Jun-16 03:30N 33°44' W 118°16'0 0.0
2018-Jun-16 03:00N 33°44' W 118°16'1459.5
2018-Jun-16 03:00N 33°43' W 118°16'1 2.1
2018-Jun-16 02:30N 33°44' W 118°16'4841.0
2018-Jun-16 02:30N 33°39' W 118°15'4 9.0
2018-Jun-16 02:00N 33°44' W 118°16'8528.5
2018-Jun-16 01:59N 33°36' W 118°16'4 8.2
2018-Jun-16 01:30N 33°32' W 118°18'1244250.9
2018-Jun-16 01:30N 33°44' W 118°16'0 0.1
2018-Jun-16 01:00N 33°44' W 118°16'163283.8
2018-Jun-16 01:00N 33°28' W 118°19'1735.0
2018-Jun-16 00:30N 33°45' W 118°16'22262.2
2018-Jun-16 00:25N 33°23' W 118°21'2252.6
2018-Jun-16 00:00N 33°45' W 118°17'23397.1
2018-Jun-15 23:57N 33°22' W 118°21'2351.9
2018-Jun-15 23:30N 33°45' W 118°17'232848.3
2018-Jun-15 23:30N 33°22' W 118°21'2347.5
2018-Jun-15 23:00N 33°45' W 118°16'23122.5
2018-Jun-15 22:49N 33°22' W 118°21'2272.1
2018-Jun-15 22:30N 33°44' W 118°17'22577.3
2018-Jun-15 22:28N 33°22' W 118°21'2145.3
2018-Jun-15 22:00N 33°42' W 118°15'211558.7
2018-Jun-15 22:00N 33°22' W 118°21'2245.2
2018-Jun-15 21:30N 33°44' W 118°16'222825.4
2018-Jun-15 21:30N 33°22' W 118°21'2244.7
2018-Jun-15 21:00N 33°44' W 118°16'22376.7
2018-Jun-15 20:57N 33°22' W 118°21'2249.4
2018-Jun-15 20:30N 33°44' W 118°16'224944.4
2018-Jun-15 20:30N 33°22' W 118°21'2244.6
2018-Jun-15 20:00N 33°44' W 118°16'2283.3
2018-Jun-15 19:45N 33°22' W 118°21'2397.8
2018-Jun-15 19:30N 33°45' W 118°16'23144.2
2018-Jun-15 19:21N 33°22' W 118°21'2368.6
2018-Jun-15 19:00N 33°45' W 118°16'1 2.6
2018-Jun-15 18:30N 33°44' W 118°16'22180.4
2018-Jun-15 18:23N 33°22' W 118°21'2257.1
2018-Jun-15 18:00N 33°44' W 118°16'22342.5
2018-Jun-15 17:56N 33°22' W 118°21'2251.5
2018-Jun-15 17:30N 33°44' W 118°16'19137.3
2018-Jun-15 17:22N 33°25' W 118°20'1952.4
2018-Jun-15 17:00N 33°44' W 118°16'16666.7
2018-Jun-15 16:59N 33°28' W 118°19'1633.5
2018-Jun-15 16:30N 33°44' W 118°16'12926.4
2018-Jun-15 16:29N 33°32' W 118°18'4 7.8
2018-Jun-15 16:00N 33°35' W 118°17'92821.1
2018-Jun-15 16:00N 33°44' W 118°16'5 9.7
2018-Jun-15 15:30N 33°39' W 118°16'5140.4
2018-Jun-15 15:28N 33°44' W 118°16'1 2.6
2018-Jun-15 15:00N 33°43' W 118°15'14410.6
2018-Jun-15 15:00N 33°44' W 118°16'1 1.4
2018-Jun-15 14:30N 33°44' W 118°17'181.5
2018-Jun-15 14:30N 33°44' W 118°16'1 2.6
2018-Jun-15 14:00N 33°45' W 118°16'12149.2
2018-Jun-15 14:00N 33°44' W 118°16'1 2.5
2018-Jun-15 13:30N 33°45' W 118°16'1 2.3
2018-Jun-15 13:00N 33°44' W 118°16'1 1.1
2018-Jun-15 12:30N 33°44' W 118°16'0 0.0
2018-Jun-15 11:58N 33°44' W 118°16'0 0.0
2018-Jun-15 11:30N 33°44' W 118°16'0 0.0
2018-Jun-15 11:00N 33°44' W 118°16'0 0.0
2018-Jun-15 10:30N 33°44' W 118°16'0 0.0
2018-Jun-15 10:00N 33°44' W 118°16'0 0.5
2018-Jun-15 09:30N 33°44' W 118°16'2 3.8
2018-Jun-15 09:00N 33°45' W 118°17'0 0.5
2018-Jun-15 08:30N 33°46' W 118°17'2 3.7
2018-Jun-15 08:00N 33°44' W 118°16'0 0.0
2018-Jun-15 07:29N 33°44' W 118°16'0 0.0
2018-Jun-15 06:59N 33°44' W 118°16'0 0.0
2018-Jun-15 06:30N 33°44' W 118°16'0 0.0
2018-Jun-15 06:00N 33°44' W 118°16'0 0.0
2018-Jun-15 05:30N 33°44' W 118°16'0 0.0
2018-Jun-15 05:00N 33°44' W 118°16'0 0.0
2018-Jun-15 04:30N 33°44' W 118°16'0 0.0
2018-Jun-15 04:00N 33°44' W 118°16'0 0.0
2018-Jun-15 03:29N 33°44' W 118°16'0 0.0
2018-Jun-15 02:57N 33°44' W 118°16'0 0.3
2018-Jun-15 02:30N 33°44' W 118°16'0 0.8
2018-Jun-15 02:01N 33°44' W 118°15'0 0.9
2018-Jun-15 01:30N 33°44' W 118°16'0 0.0
2018-Jun-15 01:00N 33°44' W 118°16'0 0.1
2018-Jun-15 00:30N 33°44' W 118°16'2 3.2
2018-Jun-15 00:00N 33°43' W 118°14'34903.5
2018-Jun-15 00:00N 33°45' W 118°16'0 0.0
2018-Jun-14 23:30N 33°45' W 118°16'33087.6
2018-Jun-14 23:30N 33°46' W 118°14'3 5.1
2018-Jun-14 23:00N 33°45' W 118°16'31040.4
2018-Jun-14 23:00N 33°45' W 118°13'3 6.6
2018-Jun-14 22:30N 33°44' W 118°16'72675.8
2018-Jun-14 22:30N 33°44' W 118°08'611.9
2018-Jun-14 22:00N 33°42' W 118°15'82930.0
2018-Jun-14 22:00N 33°44' W 118°06'1122.8
2018-Jun-14 21:30N 33°39' W 118°18'11822.3
2018-Jun-14 21:30N 33°44' W 118°06'2 4.3
2018-Jun-14 21:00N 33°44' W 118°08'131046.1
2018-Jun-14 21:00N 33°37' W 118°21'3 7.1
2018-Jun-14 20:30N 33°35' W 118°25'16565.7
2018-Jun-14 20:29N 33°45' W 118°09'0 0.0
2018-Jun-14 20:00N 33°45' W 118°09'202281.3
2018-Jun-14 20:00N 33°34' W 118°29'4 7.3
2018-Jun-14 19:30N 33°32' W 118°32'23602.5
2018-Jun-14 19:28N 33°45' W 118°09'0 0.0
2018-Jun-14 19:00N 33°45' W 118°09'28183.7
2018-Jun-14 18:51N 33°29' W 118°37'2881.1
2018-Jun-14 18:30N 33°45' W 118°09'28387.7
2018-Jun-14 18:26N 33°26' W 118°34'2660.7
2018-Jun-14 18:00N 33°43' W 118°11'1 2.7
2018-Jun-14 17:30N 33°44' W 118°10'3 5.9
2018-Jun-14 17:00N 33°43' W 118°13'2 4.2
2018-Jun-14 16:30N 33°44' W 118°16'1 1.6
2018-Jun-14 16:01N 33°43' W 118°16'235463.4
2018-Jun-14 16:00N 33°25' W 118°33'2649.8
2018-Jun-14 15:29N 33°45' W 118°12'2647240.7
2018-Jun-14 15:29N 33°28' W 118°36'2552.7
2018-Jun-14 15:00N 33°44' W 118°13'237418.7
2018-Jun-14 15:00N 33°30' W 118°35'2142.1
2018-Jun-14 14:30N 33°44' W 118°16'171202.2
2018-Jun-14 14:30N 33°32' W 118°31'1633.7
2018-Jun-14 14:00N 33°43' W 118°16'134115.7
2018-Jun-14 14:00N 33°34' W 118°27'4 7.9
2018-Jun-14 13:30N 33°37' W 118°23'1138625.9
2018-Jun-14 13:30N 33°46' W 118°16'1 1.3
2018-Jun-14 13:00N 33°45' W 118°16'64667.8
2018-Jun-14 13:00N 33°39' W 118°19'713.2
2018-Jun-14 12:30N 33°45' W 118°17'41136.1
2018-Jun-14 12:30N 33°42' W 118°16'2 3.6
2018-Jun-14 12:00N 33°43' W 118°16'158.8
2018-Jun-14 12:00N 33°44' W 118°16'3 6.2
2018-Jun-14 11:31N 33°45' W 118°13'31493.3
2018-Jun-14 11:30N 33°45' W 118°16'2 4.2
2018-Jun-14 11:00N 33°45' W 118°14'1 1.6
2018-Jun-14 10:30N 33°45' W 118°13'2 3.9
2018-Jun-14 10:01N 33°44' W 118°11'3 6.6
2018-Jun-14 09:31N 33°43' W 118°15'1 2.0
2018-Jun-14 09:00N 33°44' W 118°16'0 0.0
2018-Jun-14 08:30N 33°44' W 118°16'0 0.0
2018-Jun-14 08:00N 33°44' W 118°16'0 0.0
2018-Jun-14 07:30N 33°44' W 118°16'0 0.0
2018-Jun-14 07:00N 33°44' W 118°16'0 0.0
2018-Jun-14 06:30N 33°44' W 118°16'1 2.6
2018-Jun-14 06:00N 33°45' W 118°16'1 1.3
2018-Jun-14 05:31N 33°45' W 118°16'2 3.1
2018-Jun-14 05:00N 33°44' W 118°16'1 1.3
2018-Jun-14 04:30N 33°44' W 118°16'0 0.0
2018-Jun-14 04:00N 33°44' W 118°16'1 2.7
2018-Jun-14 03:30N 33°43' W 118°14'3 5.7
2018-Jun-14 03:00N 33°46' W 118°13'1 1.6
2018-Jun-14 02:30N 33°46' W 118°13'0 0.7
2018-Jun-14 02:00N 33°46' W 118°13'1 1.9
2018-Jun-14 01:30N 33°45' W 118°13'0 0.0
2018-Jun-14 01:00N 33°45' W 118°13'0 0.0
2018-Jun-14 00:30N 33°45' W 118°13'0 0.0
2018-Jun-14 00:00N 33°45' W 118°13'0 0.0
2018-Jun-13 23:30N 33°45' W 118°13'0 0.0
2018-Jun-13 23:00N 33°45' W 118°13'0 0.0
2018-Jun-13 22:30N 33°45' W 118°13'1 1.4
2018-Jun-13 22:01N 33°45' W 118°12'0 1.0
2018-Jun-13 21:30N 33°45' W 118°13'1 1.8
2018-Jun-13 21:00N 33°44' W 118°13'2 4.8
2018-Jun-13 20:30N 33°44' W 118°16'0 0.0
2018-Jun-13 20:00N 33°44' W 118°16'0 0.0
2018-Jun-13 19:30N 33°44' W 118°16'0 0.0
2018-Jun-13 19:00N 33°44' W 118°16'0 0.0
2018-Jun-13 18:30N 33°44' W 118°16'0 0.0
2018-Jun-13 17:59N 33°44' W 118°16'0 0.0
2018-Jun-13 17:30N 33°44' W 118°16'0 0.0
2018-Jun-13 16:57N 33°44' W 118°16'0 0.0
2018-Jun-13 16:30N 33°44' W 118°16'0 0.0
2018-Jun-13 16:00N 33°44' W 118°16'0 0.0
2018-Jun-13 15:30N 33°44' W 118°16'0 0.0
2018-Jun-13 15:00N 33°44' W 118°16'0 0.0
2018-Jun-13 14:30N 33°44' W 118°16'1 1.3
2018-Jun-13 13:59N 33°44' W 118°16'1 1.3
2018-Jun-13 13:30N 33°44' W 118°16'0 0.1
2018-Jun-13 13:00N 33°44' W 118°16'0 0.0
2018-Jun-13 12:30N 33°44' W 118°16'3 5.1
2018-Jun-13 12:00N 33°45' W 118°13'1 2.3
2018-Jun-13 11:30N 33°46' W 118°13'0 0.4
2018-Jun-13 11:00N 33°46' W 118°13'0 0.5
2018-Jun-13 10:30N 33°46' W 118°13'0 0.0
2018-Jun-13 10:00N 33°46' W 118°13'0 0.0
2018-Jun-13 09:30N 33°46' W 118°13'0 0.0
2018-Jun-13 09:00N 33°46' W 118°13'0 0.0
2018-Jun-13 08:30N 33°46' W 118°13'0 0.0
2018-Jun-13 08:00N 33°46' W 118°13'0 0.0
2018-Jun-13 07:30N 33°46' W 118°13'1 1.8
2018-Jun-13 07:00N 33°45' W 118°13'0 0.0
2018-Jun-13 06:30N 33°45' W 118°13'0 0.0
2018-Jun-13 06:00N 33°45' W 118°13'0 0.0
2018-Jun-13 05:30N 33°45' W 118°13'1 1.4
2018-Jun-13 05:00N 33°45' W 118°13'1 1.9
2018-Jun-13 04:30N 33°44' W 118°13'3 5.0
2018-Jun-13 04:00N 33°43' W 118°16'1 1.3
2018-Jun-13 03:30N 33°44' W 118°16'0 0.0
2018-Jun-13 03:00N 33°44' W 118°16'0 0.7
2018-Jun-13 02:30N 33°44' W 118°16'2 4.0
2018-Jun-13 02:00N 33°45' W 118°17'0 0.7
2018-Jun-13 01:30N 33°45' W 118°16'0 0.0
2018-Jun-13 01:00N 33°45' W 118°16'0 0.0
2018-Jun-13 00:30N 33°45' W 118°16'3 5.2
2018-Jun-13 00:00N 33°46' W 118°13'0 0.0
2018-Jun-12 23:30N 33°46' W 118°13'0 0.1
2018-Jun-12 23:00N 33°46' W 118°13'1 1.3
2018-Jun-12 22:30N 33°46' W 118°13'2 3.5
2018-Jun-12 22:00N 33°44' W 118°12'1 2.5
2018-Jun-12 21:30N 33°44' W 118°11'543.3
2018-Jun-12 21:24N 33°45' W 118°16'0 0.0
2018-Jun-12 21:00N 33°45' W 118°16'0 0.0
2018-Jun-12 20:30N 33°45' W 118°16'3134.0
2018-Jun-12 20:29N 33°43' W 118°13'2 4.2
2018-Jun-12 20:00N 33°44' W 118°16'0 0.9
2018-Jun-12 19:30N 33°43' W 118°16'3 5.5
2018-Jun-12 19:00N 33°46' W 118°15'0 0.2
2018-Jun-12 18:30N 33°46' W 118°15'1 1.0
2018-Jun-12 18:00N 33°46' W 118°15'2 3.7
2018-Jun-12 17:30N 33°44' W 118°16'0 0.0
2018-Jun-12 17:00N 33°44' W 118°16'0 0.0
2018-Jun-12 16:30N 33°44' W 118°16'1 2.7
2018-Jun-12 16:00N 33°43' W 118°14'1 2.8
2018-Jun-12 15:30N 33°44' W 118°13'2 3.1
2018-Jun-12 15:00N 33°43' W 118°15'3 5.6
2018-Jun-12 14:30N 33°45' W 118°16'0 0.6
2018-Jun-12 14:00N 33°46' W 118°16'0 0.0
2018-Jun-12 13:30N 33°46' W 118°16'0 0.0
2018-Jun-12 13:00N 33°46' W 118°16'0 0.9
2018-Jun-12 12:31N 33°45' W 118°16'1 2.8
2018-Jun-12 12:00N 33°44' W 118°16'0 0.9
2018-Jun-12 11:30N 33°43' W 118°16'1 1.5
2018-Jun-12 11:00N 33°43' W 118°15'1 1.8
2018-Jun-12 10:30N 33°44' W 118°16'0 0.0
2018-Jun-12 10:00N 33°44' W 118°16'0 0.0
2018-Jun-12 09:30N 33°44' W 118°16'1 1.2
2018-Jun-12 09:01N 33°43' W 118°16'3 5.4
2018-Jun-12 08:30N 33°46' W 118°15'0 0.0
2018-Jun-12 08:00N 33°46' W 118°15'0 0.0
2018-Jun-12 07:30N 33°46' W 118°15'0 0.0
2018-Jun-12 07:00N 33°46' W 118°15'0 0.0
2018-Jun-12 06:30N 33°46' W 118°15'0 0.0
2018-Jun-12 06:00N 33°46' W 118°15'1 2.9
2018-Jun-12 05:30N 33°45' W 118°17'0 0.3
2018-Jun-12 05:00N 33°46' W 118°17'2 4.1
2018-Jun-12 04:30N 33°44' W 118°16'0 0.4
2018-Jun-12 04:00N 33°44' W 118°16'0 0.0
2018-Jun-12 03:30N 33°44' W 118°16'0 0.0
2018-Jun-12 03:00N 33°44' W 118°16'0 0.0
2018-Jun-12 02:30N 33°44' W 118°16'0 0.0
2018-Jun-12 02:00N 33°44' W 118°16'0 0.0
2018-Jun-12 01:30N 33°44' W 118°16'0 0.4
2018-Jun-12 01:00N 33°44' W 118°16'1 2.2
2018-Jun-12 00:30N 33°43' W 118°15'3 5.8
2018-Jun-12 00:00N 33°44' W 118°12'1 2.2
2018-Jun-11 23:30N 33°44' W 118°13'1 2.6
2018-Jun-11 23:00N 33°43' W 118°14'3 6.3
2018-Jun-11 22:31N 33°46' W 118°17'1 1.2
2018-Jun-11 22:00N 33°45' W 118°16'1 1.4
2018-Jun-11 21:30N 33°46' W 118°16'1 1.5
2018-Jun-11 21:00N 33°45' W 118°16'0 0.0
2018-Jun-11 20:30N 33°45' W 118°16'0 0.0
2018-Jun-11 20:00N 33°45' W 118°16'0 0.0
2018-Jun-11 19:30N 33°45' W 118°16'0 0.0
2018-Jun-11 19:00N 33°45' W 118°16'0 0.4
2018-Jun-11 18:30N 33°45' W 118°16'2 4.8
2018-Jun-11 18:00N 33°43' W 118°15'3 6.0
2018-Jun-11 17:30N 33°45' W 118°12'1 1.9
2018-Jun-11 17:00N 33°45' W 118°13'0 0.9
2018-Jun-11 16:30N 33°46' W 118°13'3 5.8
2018-Jun-11 16:00N 33°43' W 118°14'1 2.9
2018-Jun-11 15:30N 33°44' W 118°16'2 3.1
2018-Jun-11 15:00N 33°43' W 118°14'3 5.6
2018-Jun-11 14:30N 33°46' W 118°13'2 3.9
2018-Jun-11 13:59N 33°44' W 118°13'2 4.2
2018-Jun-11 13:30N 33°44' W 118°16'0 0.1
2018-Jun-11 13:00N 33°44' W 118°16'1 2.7
2018-Jun-11 12:30N 33°45' W 118°16'0 0.0
2018-Jun-11 12:00N 33°45' W 118°16'2 3.1
2018-Jun-11 11:30N 33°43' W 118°16'1 2.4
2018-Jun-11 11:00N 33°43' W 118°15'1 1.6
2018-Jun-11 10:29N 33°43' W 118°16'0 0.0
2018-Jun-11 10:00N 33°43' W 118°16'0 0.0
2018-Jun-11 09:30N 33°43' W 118°16'0 0.0
2018-Jun-11 09:00N 33°43' W 118°16'0 0.0
2018-Jun-11 08:30N 33°43' W 118°16'0 0.0
2018-Jun-11 08:00N 33°43' W 118°16'0 0.0
2018-Jun-11 07:27N 33°43' W 118°16'0 0.0
2018-Jun-11 07:00N 33°43' W 118°16'0 0.0
2018-Jun-11 06:30N 33°43' W 118°16'2 3.1
2018-Jun-11 06:00N 33°45' W 118°16'1 2.5
2018-Jun-11 05:30N 33°46' W 118°16'0 0.3
2018-Jun-11 04:59N 33°46' W 118°16'2 4.2
2018-Jun-11 04:29N 33°44' W 118°16'1 1.2
2018-Jun-11 04:00N 33°44' W 118°16'0 0.0
2018-Jun-11 03:30N 33°44' W 118°16'0 0.0
2018-Jun-11 03:00N 33°44' W 118°16'0 0.0
2018-Jun-11 02:30N 33°44' W 118°16'0 0.0
2018-Jun-11 02:00N 33°44' W 118°16'2 4.8
2018-Jun-11 01:30N 33°44' W 118°13'2 4.9
2018-Jun-11 01:00N 33°44' W 118°16'1 2.8
2018-Jun-11 00:30N 33°43' W 118°14'2 3.2
2018-Jun-11 00:00N 33°44' W 118°13'1 2.9
2018-Jun-10 23:30N 33°43' W 118°14'1 2.8
2018-Jun-10 23:00N 33°44' W 118°16'0 0.0
2018-Jun-10 22:30N 33°44' W 118°16'0 0.0
2018-Jun-10 22:00N 33°44' W 118°16'0 0.0
2018-Jun-10 21:30N 33°44' W 118°16'0 0.0
2018-Jun-10 20:59N 33°44' W 118°16'0 0.2
2018-Jun-10 20:30N 33°44' W 118°16'2 3.4
2018-Jun-10 20:00N 33°45' W 118°16'1 2.8
2018-Jun-10 19:30N 33°44' W 118°17'1 1.7
2018-Jun-10 19:00N 33°44' W 118°16'0 0.0
2018-Jun-10 18:30N 33°44' W 118°16'0 0.0
2018-Jun-10 17:59N 33°44' W 118°16'0 0.0
2018-Jun-10 17:30N 33°44' W 118°16'0 0.0
2018-Jun-10 17:00N 33°44' W 118°16'0 0.0
2018-Jun-10 16:30N 33°44' W 118°16'0 0.0
2018-Jun-10 16:00N 33°44' W 118°16'0 0.0
2018-Jun-10 15:30N 33°44' W 118°16'0 0.0
2018-Jun-10 15:00N 33°44' W 118°16'1 1.4
2018-Jun-10 14:00N 33°45' W 118°16'1 2.3
2018-Jun-10 13:30N 33°44' W 118°17'1 1.6
2018-Jun-10 13:00N 33°44' W 118°16'0 0.0
2018-Jun-10 12:30N 33°44' W 118°16'2 3.0
2018-Jun-10 11:59N 33°43' W 118°14'2 5.0
2018-Jun-10 11:30N 33°45' W 118°13'1 1.6
2018-Jun-10 11:00N 33°46' W 118°13'0 0.0
2018-Jun-10 10:30N 33°46' W 118°13'0 0.0
2018-Jun-10 10:00N 33°46' W 118°13'1 1.4
2018-Jun-10 09:30N 33°45' W 118°13'0 0.0
2018-Jun-10 08:59N 33°45' W 118°13'0 0.0
2018-Jun-10 08:30N 33°45' W 118°13'0 0.0
2018-Jun-10 08:00N 33°45' W 118°13'0 0.0
2018-Jun-10 07:30N 33°45' W 118°13'0 0.0
2018-Jun-10 07:00N 33°45' W 118°13'0 0.0
2018-Jun-10 06:30N 33°45' W 118°13'1 2.6
2018-Jun-10 06:00N 33°44' W 118°13'1 2.6
2018-Jun-10 05:30N 33°44' W 118°15'1 1.1
2018-Jun-10 05:00N 33°44' W 118°16'0 0.0
2018-Jun-10 04:30N 33°44' W 118°16'0 0.0
2018-Jun-10 04:00N 33°44' W 118°16'0 0.0
2018-Jun-10 03:30N 33°44' W 118°16'0 0.0
2018-Jun-10 03:00N 33°44' W 118°16'1 2.1
2018-Jun-10 02:30N 33°45' W 118°17'1 1.8
2018-Jun-10 02:00N 33°45' W 118°17'1 2.8
2018-Jun-10 01:30N 33°44' W 118°17'1 1.4
2018-Jun-10 01:00N 33°44' W 118°16'0 0.0
2018-Jun-10 00:30N 33°44' W 118°16'0 0.0
2018-Jun-10 00:00N 33°44' W 118°16'0 0.0
2018-Jun-09 23:30N 33°44' W 118°16'0 0.0
2018-Jun-09 23:00N 33°44' W 118°16'0 0.0
2018-Jun-09 22:30N 33°44' W 118°16'0 0.0
2018-Jun-09 22:00N 33°44' W 118°16'0 0.0
2018-Jun-09 21:29N 33°44' W 118°16'0 0.0
2018-Jun-09 21:00N 33°44' W 118°16'0 0.0
2018-Jun-09 20:30N 33°44' W 118°16'1 1.3
2018-Jun-09 20:00N 33°43' W 118°16'3 6.2
2018-Jun-09 19:30N 33°44' W 118°12'2 3.2
2018-Jun-09 19:00N 33°45' W 118°11'2 4.2
2018-Jun-09 18:30N 33°43' W 118°13'2 5.0
2018-Jun-09 18:00N 33°44' W 118°16'0 0.0
2018-Jun-09 17:30N 33°44' W 118°16'0 0.0
2018-Jun-09 17:00N 33°44' W 118°16'0 0.0
2018-Jun-09 16:30N 33°44' W 118°16'0 0.0
2018-Jun-09 16:00N 33°44' W 118°16'0 0.0
2018-Jun-09 15:00N 33°44' W 118°16'1 1.5
2018-Jun-09 14:30N 33°43' W 118°16'2 2.9
2018-Jun-09 14:00N 33°43' W 118°14'2 3.6
2018-Jun-09 13:30N 33°44' W 118°12'3 5.3
2018-Jun-09 13:00N 33°44' W 118°09'3 6.8
2018-Jun-09 12:30N 33°45' W 118°13'3 6.1
2018-Jun-09 12:00N 33°43' W 118°15'2 4.3
2018-Jun-09 11:30N 33°45' W 118°16'1 1.9
2018-Jun-09 11:00N 33°46' W 118°16'1 1.9
2018-Jun-09 10:30N 33°45' W 118°16'0 0.0
2018-Jun-09 10:00N 33°45' W 118°16'0 0.0
2018-Jun-09 09:30N 33°45' W 118°16'0 0.0
2018-Jun-09 09:00N 33°45' W 118°16'0 0.0
2018-Jun-09 08:30N 33°45' W 118°16'0 0.0
2018-Jun-09 08:00N 33°45' W 118°16'0 0.0
2018-Jun-09 07:30N 33°45' W 118°16'0 0.0
2018-Jun-09 07:00N 33°45' W 118°16'0 0.0
2018-Jun-09 06:30N 33°45' W 118°16'0 0.0
2018-Jun-09 06:00N 33°45' W 118°16'1 2.4
2018-Jun-09 05:31N 33°46' W 118°16'0 0.1
2018-Jun-09 05:00N 33°46' W 118°16'2 4.2
2018-Jun-09 04:30N 33°44' W 118°16'0 0.0
2018-Jun-09 03:59N 33°44' W 118°16'0 0.0
2018-Jun-09 03:30N 33°44' W 118°16'0 0.0
2018-Jun-09 03:00N 33°44' W 118°16'2 3.8
2018-Jun-09 02:29N 33°44' W 118°13'1 2.5
2018-Jun-09 02:00N 33°44' W 118°12'3 6.2
2018-Jun-09 01:30N 33°43' W 118°16'1 1.9
2018-Jun-09 01:00N 33°44' W 118°16'0 0.0
2018-Jun-09 00:30N 33°44' W 118°16'0 0.0
2018-Jun-09 00:00N 33°44' W 118°16'0 0.0
2018-Jun-08 23:30N 33°44' W 118°16'0 0.0
2018-Jun-08 23:00N 33°44' W 118°16'  

Dump ship's entire track history